createdAt,value
2018-02-08T00:00:13.688Z,-3.47
2018-02-08T00:01:16.230Z,-3.57
2018-02-08T00:02:18.738Z,-3.67
2018-02-08T00:03:21.228Z,-3.75
2018-02-08T00:04:23.735Z,-3.68
2018-02-08T00:05:26.210Z,-3.76
2018-02-08T00:06:28.678Z,-3.79
2018-02-08T00:07:31.160Z,-3.86
2018-02-08T00:08:33.653Z,-3.55
2018-02-08T00:09:36.122Z,-3.52
2018-02-08T00:10:38.606Z,-3.66
2018-02-08T00:11:41.080Z,-3.37
2018-02-08T00:12:43.568Z,-3.44
2018-02-08T00:13:46.045Z,-3.56
2018-02-08T00:14:48.529Z,-3.73
2018-02-08T00:15:50.998Z,-3.80
2018-02-08T00:16:53.476Z,-3.62
2018-02-08T00:17:55.964Z,-3.62
2018-02-08T00:18:58.449Z,-3.45
2018-02-08T00:20:00.964Z,-3.47
2018-02-08T00:21:03.438Z,-3.45
2018-02-08T00:22:05.983Z,-3.23
2018-02-08T00:23:08.488Z,-3.42
2018-02-08T00:24:10.958Z,-3.47
2018-02-08T00:25:13.444Z,-3.34
2018-02-08T00:26:15.919Z,-3.52
2018-02-08T00:27:18.402Z,-3.68
2018-02-08T00:28:20.889Z,-3.71
2018-02-08T00:29:23.401Z,-3.80
2018-02-08T00:30:25.904Z,-3.95
2018-02-08T00:31:28.386Z,-4.02
2018-02-08T00:32:30.884Z,-4.13
2018-02-08T00:33:33.357Z,-4.13
2018-02-08T00:34:35.826Z,-4.21
2018-02-08T00:35:38.309Z,-4.24
2018-02-08T00:36:40.797Z,-4.27
2018-02-08T00:37:43.293Z,-4.32
2018-02-08T00:38:45.763Z,-4.31
2018-02-08T00:39:48.231Z,-4.30
2018-02-08T00:40:50.707Z,-4.27
2018-02-08T00:41:53.178Z,-4.21
2018-02-08T00:42:55.665Z,-4.14
2018-02-08T00:43:58.168Z,-4.16
2018-02-08T00:45:00.656Z,-4.29
2018-02-08T00:46:03.144Z,-4.15
2018-02-08T00:47:05.637Z,-4.24
2018-02-08T00:48:08.107Z,-4.35
2018-02-08T00:49:10.598Z,-4.34
2018-02-08T00:50:13.070Z,-4.41
2018-02-08T00:51:15.546Z,-4.47
2018-02-08T00:52:18.054Z,-4.35
2018-02-08T00:53:20.541Z,-4.17
2018-02-08T00:54:23.031Z,-4.18
2018-02-08T00:55:25.519Z,-4.13
2018-02-08T00:56:27.986Z,-4.13
2018-02-08T00:57:30.455Z,-4.26
2018-02-08T00:58:32.950Z,-4.40
2018-02-08T00:59:35.438Z,-4.26
2018-02-08T01:00:37.925Z,-4.27
2018-02-08T01:01:40.412Z,-4.33
2018-02-08T01:02:42.892Z,-4.43
2018-02-08T01:03:45.373Z,-4.56
2018-02-08T01:04:47.843Z,-4.44
2018-02-08T01:05:50.314Z,-4.39
2018-02-08T01:06:52.794Z,-4.31
2018-02-08T01:07:55.274Z,-4.42
2018-02-08T01:08:57.765Z,-4.58
2018-02-08T01:10:00.252Z,-4.52
2018-02-08T01:11:02.741Z,-4.53
2018-02-08T01:12:05.216Z,-4.42
2018-02-08T01:13:07.718Z,-4.38
2018-02-08T01:14:10.200Z,-4.37
2018-02-08T01:15:12.685Z,-4.40
2018-02-08T01:16:15.178Z,-4.49
2018-02-08T01:17:17.691Z,-4.65
2018-02-08T01:18:20.175Z,-4.73
2018-02-08T01:19:22.645Z,-4.83
2018-02-08T01:20:25.125Z,-4.78
2018-02-08T01:21:27.599Z,-4.86
2018-02-08T01:22:30.075Z,-4.93
2018-02-08T01:23:32.546Z,-5.00
2018-02-08T01:24:35.041Z,-5.07
2018-02-08T01:25:37.528Z,-5.10
2018-02-08T01:26:40.016Z,-5.14
2018-02-08T01:27:42.509Z,-5.14
2018-02-08T01:28:44.982Z,-5.11
2018-02-08T01:29:47.497Z,-4.98
2018-02-08T01:30:49.965Z,-5.00
2018-02-08T01:31:52.504Z,-5.03
2018-02-08T01:32:54.958Z,-5.01
2018-02-08T01:33:57.435Z,-5.05
2018-02-08T01:34:59.914Z,-5.10
2018-02-08T01:36:02.409Z,-5.09
2018-02-08T01:37:04.881Z,-5.10
2018-02-08T01:38:07.354Z,-5.06
2018-02-08T01:39:09.832Z,-5.08
2018-02-08T01:40:12.312Z,-5.14
2018-02-08T01:41:14.791Z,-5.18
2018-02-08T01:42:17.258Z,-5.15
2018-02-08T01:43:19.747Z,-5.08
2018-02-08T01:44:22.236Z,-5.07
2018-02-08T01:45:24.717Z,-4.97
2018-02-08T01:46:27.207Z,-4.97
2018-02-08T01:47:29.687Z,-4.87
2018-02-08T01:48:32.159Z,-4.83
2018-02-08T01:49:45.533Z,-4.88
2018-02-08T01:50:48.017Z,-4.97
2018-02-08T01:51:50.490Z,-4.83
2018-02-08T01:52:52.962Z,-4.75
2018-02-08T01:53:55.436Z,-4.82
2018-02-08T01:54:58.030Z,-4.88
2018-02-08T01:56:00.499Z,-4.95
2018-02-08T01:57:03.016Z,-4.87
2018-02-08T01:58:05.509Z,-4.86
2018-02-08T01:59:07.978Z,-4.96
2018-02-08T02:00:10.473Z,-5.04
2018-02-08T02:01:12.946Z,-5.13
2018-02-08T02:02:15.439Z,-5.19
2018-02-08T02:03:17.936Z,-5.20
2018-02-08T02:04:20.411Z,-5.25
2018-02-08T02:05:22.894Z,-5.31
2018-02-08T02:06:25.381Z,-5.35
2018-02-08T02:07:27.850Z,-5.32
2018-02-08T02:08:30.338Z,-5.29
2018-02-08T02:09:32.807Z,-5.30
2018-02-08T02:10:35.293Z,-5.32
2018-02-08T02:11:37.784Z,-5.33
2018-02-08T02:12:40.255Z,-5.35
2018-02-08T02:13:42.719Z,-5.37
2018-02-08T02:14:45.191Z,-5.13
2018-02-08T02:15:47.668Z,-5.07
2018-02-08T02:16:50.153Z,-5.05
2018-02-08T02:17:52.623Z,-5.02
2018-02-08T02:18:55.141Z,-4.93
2018-02-08T02:19:57.658Z,-5.05
2018-02-08T02:21:00.189Z,-5.16
2018-02-08T02:22:02.660Z,-5.23
2018-02-08T02:23:05.127Z,-5.24
2018-02-08T02:24:07.595Z,-5.28
2018-02-08T02:25:10.078Z,-5.35
2018-02-08T02:26:12.585Z,-5.37
2018-02-08T02:27:15.073Z,-5.40
2018-02-08T02:28:17.542Z,-5.06
2018-02-08T02:29:20.045Z,-5.19
2018-02-08T02:30:22.538Z,-5.14
2018-02-08T02:31:25.074Z,-5.27
2018-02-08T02:32:27.547Z,-5.36
2018-02-08T02:33:30.029Z,-5.36
2018-02-08T02:34:32.503Z,-5.37
2018-02-08T02:35:35.001Z,-5.25
2018-02-08T02:36:37.470Z,-5.21
2018-02-08T02:37:39.953Z,-5.09
2018-02-08T02:38:42.477Z,-5.16
2018-02-08T02:39:44.969Z,-5.20
2018-02-08T02:40:47.442Z,-5.01
2018-02-08T02:41:49.915Z,-5.08
2018-02-08T02:42:52.392Z,-5.10
2018-02-08T02:43:54.916Z,-5.20
2018-02-08T02:44:57.364Z,-5.18
2018-02-08T02:45:59.834Z,-5.03
2018-02-08T02:47:02.328Z,-4.80
2018-02-08T02:48:04.809Z,-4.88
2018-02-08T02:49:07.294Z,-4.96
2018-02-08T02:50:09.816Z,-4.88
2018-02-08T02:51:12.310Z,-4.71
2018-02-08T02:52:14.801Z,-4.80
2018-02-08T02:53:17.302Z,-4.78
2018-02-08T02:54:19.790Z,-4.84
2018-02-08T02:55:22.273Z,-4.55
2018-02-08T02:56:24.751Z,-4.66
2018-02-08T02:57:27.237Z,-4.84
2018-02-08T02:58:29.713Z,-5.02
2018-02-08T02:59:32.213Z,-4.94
2018-02-08T03:00:34.683Z,-4.99
2018-02-08T03:01:37.160Z,-5.15
2018-02-08T03:02:39.660Z,-5.24
2018-02-08T03:03:42.132Z,-5.32
2018-02-08T03:04:44.620Z,-5.16
2018-02-08T03:05:47.114Z,-5.12
2018-02-08T03:06:49.588Z,-5.18
2018-02-08T03:07:52.063Z,-5.30
2018-02-08T03:08:54.544Z,-5.45
2018-02-08T03:09:57.037Z,-5.48
2018-02-08T03:10:59.528Z,-5.49
2018-02-08T03:12:02.009Z,-5.57
2018-02-08T03:13:04.506Z,-5.64
2018-02-08T03:14:06.975Z,-5.67
2018-02-08T03:15:09.443Z,-5.63
2018-02-08T03:16:11.918Z,-5.59
2018-02-08T03:17:14.396Z,-5.23
2018-02-08T03:18:16.862Z,-5.07
2018-02-08T03:19:19.343Z,-5.24
2018-02-08T03:20:21.848Z,-5.30
2018-02-08T03:21:24.322Z,-5.37
2018-02-08T03:22:26.813Z,-5.30
2018-02-08T03:23:29.548Z,-5.42
2018-02-08T03:24:32.085Z,-5.47
2018-02-08T03:25:34.568Z,-5.37
2018-02-08T03:26:37.042Z,-5.43
2018-02-08T03:27:39.533Z,-5.55
2018-02-08T03:28:42.022Z,-5.67
2018-02-08T03:29:44.498Z,-5.71
2018-02-08T03:30:47.471Z,-5.77
2018-02-08T03:31:49.971Z,-5.80
2018-02-08T03:32:52.447Z,-5.84
2018-02-08T03:33:54.942Z,-5.83
2018-02-08T03:34:57.433Z,-5.87
2018-02-08T03:35:59.927Z,-5.89
2018-02-08T03:37:02.420Z,-5.77
2018-02-08T03:38:04.904Z,-5.87
2018-02-08T03:39:07.375Z,-5.88
2018-02-08T03:40:09.853Z,-5.82
2018-02-08T03:41:12.344Z,-5.85
2018-02-08T03:42:14.839Z,-5.85
2018-02-08T03:43:17.339Z,-5.86
2018-02-08T03:44:19.814Z,-5.73
2018-02-08T03:45:22.287Z,-5.54
2018-02-08T03:46:24.776Z,-5.49
2018-02-08T03:47:27.290Z,-5.50
2018-02-08T03:48:29.762Z,-5.63
2018-02-08T03:49:32.248Z,-5.64
2018-02-08T03:50:34.735Z,-5.63
2018-02-08T03:51:37.209Z,-5.70
2018-02-08T03:52:39.713Z,-5.78
2018-02-08T03:53:42.221Z,-5.87
2018-02-08T03:54:44.694Z,-5.86
2018-02-08T03:55:47.210Z,-5.88
2018-02-08T03:56:49.686Z,-5.89
2018-02-08T03:57:52.176Z,-5.95
2018-02-08T03:58:54.651Z,-6.01
2018-02-08T03:59:57.146Z,-6.04
2018-02-08T04:00:59.618Z,-5.97
2018-02-08T04:02:02.088Z,-5.97
2018-02-08T04:03:04.635Z,-5.98
2018-02-08T04:04:07.140Z,-6.00
2018-02-08T04:05:09.615Z,-5.97
2018-02-08T04:06:12.104Z,-5.96
2018-02-08T04:07:14.585Z,-6.00
2018-02-08T04:08:17.097Z,-5.98
2018-02-08T04:09:19.570Z,-6.01
2018-02-08T04:10:22.046Z,-5.97
2018-02-08T04:11:24.517Z,-5.95
2018-02-08T04:12:27.068Z,-5.95
2018-02-08T04:13:29.566Z,-5.94
2018-02-08T04:14:32.039Z,-5.87
2018-02-08T04:15:34.519Z,-5.76
2018-02-08T04:16:37.010Z,-5.74
2018-02-08T04:17:39.500Z,-5.74
2018-02-08T04:18:41.991Z,-5.63
2018-02-08T04:19:44.462Z,-5.63
2018-02-08T04:20:46.998Z,-5.71
2018-02-08T04:21:49.470Z,-5.78
2018-02-08T04:22:52.022Z,-5.89
2018-02-08T04:23:54.541Z,-5.94
2018-02-08T04:24:57.022Z,-5.92
2018-02-08T04:25:59.516Z,-5.86
2018-02-08T04:27:02.009Z,-5.87
2018-02-08T04:28:04.546Z,-5.95
2018-02-08T04:29:07.066Z,-5.91
2018-02-08T04:30:09.539Z,-5.96
2018-02-08T04:31:12.024Z,-5.95
2018-02-08T04:32:14.516Z,-6.00
2018-02-08T04:33:17.013Z,-6.04
2018-02-08T04:34:19.528Z,-6.01
2018-02-08T04:35:22.003Z,-5.96
2018-02-08T04:36:24.480Z,-5.84
2018-02-08T04:37:26.969Z,-5.83
2018-02-08T04:38:41.246Z,-5.82
2018-02-08T04:39:55.454Z,-5.84
2018-02-08T05:23:52.685Z,-5.48
2018-02-08T05:24:55.155Z,-5.51
2018-02-08T05:25:57.647Z,-5.47
2018-02-08T05:27:00.115Z,-5.27
2018-02-08T05:28:02.640Z,-5.38
2018-02-08T05:29:05.138Z,-5.37
2018-02-08T05:30:07.616Z,-5.39
2018-02-08T05:31:10.082Z,-5.43
2018-02-08T05:32:12.566Z,-5.32
2018-02-08T05:33:15.088Z,-5.29
2018-02-08T05:34:17.605Z,-5.31
2018-02-08T05:35:20.093Z,-5.48
2018-02-08T05:36:22.678Z,-5.52
2018-02-08T05:37:25.137Z,-5.60
2018-02-08T05:38:27.611Z,-5.77
2018-02-08T05:39:30.089Z,-5.85
2018-02-08T05:40:32.577Z,-5.87
2018-02-08T05:41:35.043Z,-6.04
2018-02-08T05:42:37.532Z,-6.09
2018-02-08T05:43:40.004Z,-6.07
2018-02-08T05:44:42.475Z,-6.10
2018-02-08T05:45:44.960Z,-6.05
2018-02-08T05:46:47.457Z,-6.14
2018-02-08T05:47:49.943Z,-6.21
2018-02-08T05:48:52.437Z,-6.26
2018-02-08T05:49:54.907Z,-6.28
2018-02-08T05:50:57.400Z,-6.17
2018-02-08T05:51:59.882Z,-6.16
2018-02-08T05:53:02.355Z,-6.20
2018-02-08T05:54:04.839Z,-6.26
2018-02-08T05:55:07.327Z,-6.31
2018-02-08T05:56:09.833Z,-6.35
2018-02-08T05:57:12.325Z,-6.43
2018-02-08T05:58:14.822Z,-6.40
2018-02-08T05:59:17.317Z,-6.37
2018-02-08T06:00:19.802Z,-6.36
2018-02-08T06:01:22.281Z,-6.39
2018-02-08T06:02:24.824Z,-6.39
2018-02-08T06:03:27.294Z,-6.33
2018-02-08T06:04:29.767Z,-6.34
2018-02-08T06:05:32.243Z,-6.13
2018-02-08T06:06:34.717Z,-6.26
2018-02-08T06:07:37.205Z,-6.29
2018-02-08T06:08:39.688Z,-6.33
2018-02-08T06:09:42.189Z,-6.38
2018-02-08T06:10:44.677Z,-6.46
2018-02-08T06:11:47.154Z,-6.53
2018-02-08T06:12:49.659Z,-6.61
2018-02-08T06:13:52.142Z,-6.64
2018-02-08T06:14:54.638Z,-6.65
2018-02-08T06:15:57.124Z,-6.63
2018-02-08T06:16:59.605Z,-6.59
2018-02-08T06:18:02.094Z,-6.55
2018-02-08T06:19:04.563Z,-6.58
2018-02-08T06:20:07.046Z,-6.62
2018-02-08T06:21:09.530Z,-6.65
2018-02-08T06:22:12.004Z,-6.58
2018-02-08T06:23:14.478Z,-6.52
2018-02-08T06:24:16.980Z,-6.37
2018-02-08T06:25:19.443Z,-6.42
2018-02-08T06:26:21.922Z,-6.40
2018-02-08T06:27:24.411Z,-6.40
2018-02-08T06:28:26.912Z,-6.45
2018-02-08T06:29:29.424Z,-6.26
2018-02-08T06:30:31.934Z,-6.11
2018-02-08T06:31:34.406Z,-5.90
2018-02-08T06:32:36.898Z,-5.81
2018-02-08T06:33:39.389Z,-5.74
2018-02-08T06:34:41.866Z,-5.79
2018-02-08T06:35:44.343Z,-5.79
2018-02-08T06:36:46.826Z,-5.92
2018-02-08T06:37:49.298Z,-5.99
2018-02-08T06:38:51.766Z,-6.13
2018-02-08T06:39:54.256Z,-6.17
2018-02-08T06:40:56.733Z,-6.29
2018-02-08T06:42:00.100Z,-6.37
2018-02-08T06:43:02.601Z,-6.41
2018-02-08T06:44:05.115Z,-6.43
2018-02-08T06:45:07.599Z,-6.41
2018-02-08T06:46:10.097Z,-6.33
2018-02-08T06:47:12.612Z,-6.29
2018-02-08T06:48:15.084Z,-6.25
2018-02-08T06:49:17.608Z,-6.30
2018-02-08T06:50:20.117Z,-6.24
2018-02-08T06:51:22.594Z,-5.82
2018-02-08T06:52:25.116Z,-5.59
2018-02-08T06:53:27.627Z,-5.51
2018-02-08T06:54:30.109Z,-5.54
2018-02-08T06:55:32.597Z,-5.70
2018-02-08T06:56:35.090Z,-5.57
2018-02-08T06:57:37.578Z,-5.63
2018-02-08T06:58:40.071Z,-5.81
2018-02-08T06:59:42.560Z,-5.63
2018-02-08T07:00:45.054Z,-5.65
2018-02-08T07:01:47.539Z,-5.79
2018-02-08T07:02:50.064Z,-5.92
2018-02-08T07:03:52.617Z,-5.92
2018-02-08T07:04:55.054Z,-5.85
2018-02-08T07:05:57.553Z,-5.83
2018-02-08T07:07:00.057Z,-5.90
2018-02-08T07:08:02.648Z,-6.02
2018-02-08T07:09:05.120Z,-6.03
2018-02-08T07:10:07.591Z,-6.05
2018-02-08T07:11:10.433Z,-5.92
2018-02-08T07:12:12.910Z,-5.77
2018-02-08T07:13:15.394Z,-5.69
2018-02-08T07:14:17.877Z,-5.69
2018-02-08T07:15:20.385Z,-5.70
2018-02-08T07:16:22.860Z,-5.64
2018-02-08T07:17:25.350Z,-5.58
2018-02-08T07:18:27.838Z,-5.67
2018-02-08T07:19:30.318Z,-5.69
2018-02-08T07:20:32.805Z,-5.70
2018-02-08T07:21:35.287Z,-5.49
2018-02-08T07:22:38.081Z,-5.51
2018-02-08T07:23:40.626Z,-5.43
2018-02-08T07:24:43.113Z,-5.50
2018-02-08T07:25:45.607Z,-5.37
2018-02-08T07:26:48.090Z,-5.35
2018-02-08T07:27:50.572Z,-5.30
2018-02-08T07:28:53.056Z,-5.30
2018-02-08T07:29:55.524Z,-5.14
2018-02-08T07:30:57.994Z,-5.14
2018-02-08T07:32:00.489Z,-5.22
2018-02-08T07:33:02.954Z,-5.03
2018-02-08T07:34:05.444Z,-5.02
2018-02-08T07:35:07.927Z,-5.05
2018-02-08T07:36:10.440Z,-5.06
2018-02-08T07:37:12.925Z,-5.04
2018-02-08T07:38:15.415Z,-5.04
2018-02-08T07:39:17.904Z,-5.01
2018-02-08T07:40:20.409Z,-4.95
2018-02-08T07:41:22.900Z,-4.87
2018-02-08T07:42:25.413Z,-4.77
2018-02-08T07:43:27.920Z,-4.61
2018-02-08T07:44:30.406Z,-4.51
2018-02-08T07:45:32.886Z,-4.49
2018-02-08T07:46:35.350Z,-4.34
2018-02-08T07:47:37.830Z,-4.17
2018-02-08T07:48:40.341Z,-4.12
2018-02-08T07:49:42.815Z,-4.01
2018-02-08T07:50:45.296Z,-3.74
2018-02-08T07:51:47.785Z,-3.68
2018-02-08T07:52:50.301Z,-3.51
2018-02-08T07:53:52.785Z,-3.43
2018-02-08T07:54:55.267Z,-3.19
2018-02-08T07:55:57.738Z,-3.05
2018-02-08T07:57:00.257Z,-2.83
2018-02-08T07:58:02.730Z,-2.89
2018-02-08T07:59:05.225Z,-2.68
2018-02-08T08:00:07.755Z,-2.50
2018-02-08T08:01:10.226Z,-2.12
2018-02-08T08:02:12.716Z,-1.65
2018-02-08T08:03:15.183Z,-1.22
2018-02-08T08:04:17.666Z,-0.89
2018-02-08T08:05:20.201Z,-0.32
2018-02-08T08:06:22.684Z,0.35
2018-02-08T08:07:25.242Z,0.47
2018-02-08T08:08:27.706Z,0.85
2018-02-08T08:09:30.169Z,0.73
2018-02-08T08:10:32.653Z,1.37
2018-02-08T08:11:35.137Z,1.41
2018-02-08T08:12:37.615Z,1.30
2018-02-08T08:13:40.109Z,1.53
2018-02-08T08:14:42.598Z,1.79
2018-02-08T08:15:45.082Z,1.33
2018-02-08T08:16:47.546Z,1.39
2018-02-08T08:17:50.128Z,2.05
2018-02-08T08:18:52.646Z,2.53
2018-02-08T08:19:55.121Z,2.21
2018-02-08T08:20:57.615Z,1.91
2018-02-08T08:22:00.169Z,2.29
2018-02-08T08:23:02.682Z,2.33
2018-02-08T08:24:05.154Z,1.94
2018-02-08T08:25:07.714Z,2.40
2018-02-08T08:26:10.193Z,2.31
2018-02-08T08:27:12.658Z,2.72
2018-02-08T08:28:15.146Z,3.15
2018-02-08T08:29:17.645Z,2.87
2018-02-08T08:30:20.144Z,3.36
2018-02-08T08:31:22.626Z,3.92
2018-02-08T08:32:25.109Z,3.36
2018-02-08T08:33:27.991Z,2.71
2018-02-08T08:34:30.499Z,2.67
2018-02-08T08:35:33.007Z,3.20
2018-02-08T08:36:35.492Z,2.96
2018-02-08T08:37:37.969Z,3.18
2018-02-08T08:38:40.485Z,2.15
2018-02-08T08:39:43.075Z,1.62
2018-02-08T08:40:45.595Z,1.77
2018-02-08T08:41:48.083Z,1.42
2018-02-08T08:42:53.604Z,2.03
2018-02-08T08:43:56.395Z,2.08
2018-02-08T08:44:58.863Z,2.31
2018-02-08T08:46:05.125Z,1.94
2018-02-08T08:47:07.664Z,2.57
2018-02-08T08:48:10.126Z,2.60
2018-02-08T08:49:12.598Z,2.53
2018-02-08T08:50:15.080Z,3.13
2018-02-08T08:51:17.561Z,4.20
2018-02-08T08:52:20.046Z,2.78
2018-02-08T08:53:22.529Z,3.64
2018-02-08T08:54:25.015Z,3.80
2018-02-08T08:55:27.596Z,3.78
2018-02-08T08:56:30.148Z,3.69
2018-02-08T08:57:32.652Z,3.48
2018-02-08T08:58:35.129Z,2.90
2018-02-08T08:59:37.598Z,2.71
2018-02-08T09:00:40.108Z,3.49
2018-02-08T09:01:42.593Z,4.09
2018-02-08T09:02:45.070Z,3.67
2018-02-08T09:03:47.664Z,4.11
2018-02-08T09:04:50.225Z,3.13
2018-02-08T09:05:52.722Z,3.10
2018-02-08T09:06:55.207Z,4.10
2018-02-08T09:07:57.694Z,4.53
2018-02-08T09:09:00.189Z,4.48
2018-02-08T09:10:02.679Z,4.81
2018-02-08T09:11:05.162Z,4.74
2018-02-08T09:12:07.659Z,4.06
2018-02-08T09:13:10.124Z,4.19
2018-02-08T09:14:12.604Z,4.43
2018-02-08T09:15:15.183Z,4.65
2018-02-08T09:16:17.676Z,4.01
2018-02-08T09:17:20.157Z,4.29
2018-02-08T09:18:22.774Z,3.69
2018-02-08T09:19:25.283Z,3.21
2018-02-08T09:20:27.764Z,2.14
2018-02-08T09:21:30.224Z,2.19
2018-02-08T09:22:32.694Z,2.84
2018-02-08T09:23:35.190Z,3.19
2018-02-08T09:24:37.690Z,3.87
2018-02-08T09:25:40.177Z,3.89
2018-02-08T09:26:42.649Z,3.61
2018-02-08T09:27:45.151Z,2.78
2018-02-08T09:28:47.642Z,2.15
2018-02-08T09:29:50.139Z,2.07
2018-02-08T09:30:52.794Z,3.27
2018-02-08T09:31:55.357Z,3.99
2018-02-08T09:32:57.836Z,4.00
2018-02-08T09:34:00.312Z,3.63
2018-02-08T09:35:02.927Z,3.48
2018-02-08T09:36:05.416Z,3.26
2018-02-08T09:37:07.909Z,3.08
2018-02-08T09:38:10.434Z,2.44
2018-02-08T09:39:12.896Z,2.35
2018-02-08T09:40:15.382Z,2.89
2018-02-08T09:41:17.850Z,2.87
2018-02-08T09:42:20.334Z,2.65
2018-02-08T09:43:22.826Z,2.62
2018-02-08T09:44:26.221Z,2.80
2018-02-08T09:45:32.746Z,3.08
2018-02-08T09:46:36.866Z,3.25
2018-02-08T09:47:39.334Z,2.57
2018-02-08T09:48:41.964Z,2.56
2018-02-08T09:49:44.447Z,3.69
2018-02-08T09:50:50.963Z,3.99
2018-02-08T09:51:54.251Z,4.69
2018-02-08T09:52:56.715Z,4.13
2018-02-08T09:53:59.193Z,4.10
2018-02-08T09:55:01.675Z,3.22
2018-02-08T09:56:04.143Z,3.25
2018-02-08T09:57:06.698Z,4.13
2018-02-08T09:58:09.148Z,4.29
2018-02-08T09:59:11.614Z,5.15
2018-02-08T10:00:14.085Z,4.85
2018-02-08T10:01:16.581Z,4.71
2018-02-08T10:02:19.063Z,5.23
2018-02-08T10:03:21.545Z,5.10
2018-02-08T10:04:24.062Z,6.25
2018-02-08T10:05:26.557Z,6.85
2018-02-08T10:06:29.031Z,6.41
2018-02-08T10:07:31.537Z,7.02
2018-02-08T10:08:34.002Z,6.92
2018-02-08T10:09:36.471Z,8.10
2018-02-08T10:10:38.947Z,9.23
2018-02-08T10:11:41.443Z,9.79
2018-02-08T10:12:43.923Z,9.43
2018-02-08T10:13:46.405Z,9.59
2018-02-08T10:14:48.886Z,7.60
2018-02-08T10:15:51.372Z,7.53
2018-02-08T10:16:53.862Z,6.36
2018-02-08T10:17:56.533Z,6.08
2018-02-08T10:18:59.050Z,5.04
2018-02-08T10:20:03.071Z,5.72
2018-02-08T10:21:06.203Z,7.17
2018-02-08T10:22:08.800Z,7.03
2018-02-08T10:23:11.299Z,7.53
2018-02-08T10:24:13.770Z,7.40
2018-02-08T10:25:16.249Z,7.16
2018-02-08T10:26:18.742Z,7.18
2018-02-08T10:27:21.230Z,6.10
2018-02-08T10:28:23.707Z,7.13
2018-02-08T10:29:26.194Z,7.41
2018-02-08T10:30:28.752Z,8.18
2018-02-08T10:31:31.238Z,8.92
2018-02-08T10:32:33.707Z,7.59
2018-02-08T10:33:36.180Z,8.97
2018-02-08T10:34:38.698Z,10.30
2018-02-08T10:35:41.377Z,9.42
2018-02-08T10:36:43.883Z,11.01
2018-02-08T10:37:46.406Z,8.88
2018-02-08T10:38:48.945Z,10.31
2018-02-08T10:39:51.437Z,11.70
2018-02-08T10:40:53.903Z,11.10
2018-02-08T10:41:56.366Z,9.61
2018-02-08T10:42:58.877Z,10.18
2018-02-08T10:44:01.354Z,7.52
2018-02-08T10:45:03.842Z,8.71
2018-02-08T10:46:06.412Z,9.03
2018-02-08T10:47:08.879Z,8.08
2018-02-08T10:48:11.386Z,7.63
2018-02-08T10:49:13.866Z,7.70
2018-02-08T10:50:16.402Z,8.38
2018-02-08T10:51:18.863Z,11.07
2018-02-08T10:52:21.376Z,11.81
2018-02-08T10:53:23.879Z,10.43
2018-02-08T10:54:26.377Z,11.81
2018-02-08T10:55:28.867Z,9.79
2018-02-08T10:56:31.463Z,10.45
2018-02-08T10:57:33.934Z,8.06
2018-02-08T10:58:36.425Z,8.71
2018-02-08T10:59:38.906Z,7.92
2018-02-08T11:00:41.384Z,9.10
2018-02-08T11:01:43.865Z,8.50
2018-02-08T11:02:46.345Z,8.79
2018-02-08T11:03:48.811Z,10.71
2018-02-08T11:04:51.307Z,11.24
2018-02-08T11:05:53.783Z,10.99
2018-02-08T11:06:56.273Z,11.43
2018-02-08T11:07:58.754Z,10.50
2018-02-08T11:09:01.227Z,10.59
2018-02-08T11:10:03.694Z,9.01
2018-02-08T11:11:06.181Z,10.33
2018-02-08T11:12:08.663Z,10.11
2018-02-08T11:13:11.150Z,10.77
2018-02-08T11:14:13.650Z,9.11
2018-02-08T11:15:16.143Z,11.27
2018-02-08T11:16:18.633Z,11.43
2018-02-08T11:17:21.104Z,10.51
2018-02-08T11:18:23.575Z,9.07
2018-02-08T11:19:26.049Z,9.82
2018-02-08T11:20:28.534Z,9.97
2018-02-08T11:21:31.013Z,9.53
2018-02-08T11:22:33.497Z,9.43
2018-02-08T11:23:35.981Z,10.09
2018-02-08T11:24:38.455Z,10.10
2018-02-08T11:25:40.937Z,10.85
2018-02-08T11:26:43.416Z,11.86
2018-02-08T11:27:45.909Z,12.25
2018-02-08T11:28:48.401Z,12.49
2018-02-08T11:29:50.888Z,11.38
2018-02-08T11:30:53.386Z,9.59
2018-02-08T11:31:55.854Z,10.12
2018-02-08T11:32:58.332Z,10.82
2018-02-08T11:34:00.824Z,11.22
2018-02-08T11:35:03.304Z,12.03
2018-02-08T11:36:05.782Z,13.33
2018-02-08T11:37:08.267Z,14.12
2018-02-08T11:38:10.743Z,13.11
2018-02-08T11:39:13.309Z,14.97
2018-02-08T11:40:15.881Z,13.12
2018-02-08T11:41:18.376Z,14.18
2018-02-08T11:42:20.864Z,12.13
2018-02-08T11:43:23.372Z,11.04
2018-02-08T11:44:25.905Z,11.84
2018-02-08T11:45:28.664Z,13.70
2018-02-08T11:46:31.164Z,11.08
2018-02-08T11:47:33.655Z,10.00
2018-02-08T11:48:36.141Z,11.95
2018-02-08T11:49:38.637Z,12.56
2018-02-08T11:50:41.123Z,14.15
2018-02-08T11:51:43.704Z,14.81
2018-02-08T11:52:46.174Z,16.08
2018-02-08T11:53:48.683Z,15.62
2018-02-08T11:54:51.168Z,12.34
2018-02-08T11:55:53.679Z,13.02
2018-02-08T11:56:56.849Z,13.27
2018-02-08T11:57:59.342Z,11.65
2018-02-08T11:59:01.850Z,12.09
2018-02-08T12:00:04.341Z,14.36
2018-02-08T12:01:06.837Z,14.36
2018-02-08T12:02:09.329Z,13.40
2018-02-08T12:03:11.929Z,15.16
2018-02-08T12:04:14.336Z,13.46
2018-02-08T12:05:16.835Z,14.14
2018-02-08T12:06:19.383Z,15.18
2018-02-08T12:07:21.901Z,16.01
2018-02-08T12:08:24.402Z,14.51
2018-02-08T12:09:26.896Z,13.58
2018-02-08T12:10:29.371Z,14.55
2018-02-08T12:11:31.853Z,12.71
2018-02-08T12:12:34.322Z,12.82
2018-02-08T12:13:36.842Z,12.03
2018-02-08T12:14:40.551Z,13.00
2018-02-08T12:15:43.044Z,12.60
2018-02-08T12:16:45.512Z,13.48
2018-02-08T12:17:47.982Z,14.95
2018-02-08T12:18:50.476Z,17.20
2018-02-08T12:19:52.959Z,15.90
2018-02-08T12:20:55.445Z,13.59
2018-02-08T12:21:57.944Z,13.63
2018-02-08T12:23:00.422Z,13.99
2018-02-08T12:24:02.921Z,14.19
2018-02-08T12:25:05.419Z,15.63
2018-02-08T12:26:07.919Z,15.32
2018-02-08T12:27:10.417Z,16.69
2018-02-08T12:28:12.916Z,14.43
2018-02-08T12:29:15.448Z,13.03
2018-02-08T12:30:17.927Z,13.37
2018-02-08T12:31:20.429Z,14.79
2018-02-08T12:32:22.919Z,16.05
2018-02-08T12:33:25.449Z,14.19
2018-02-08T12:34:27.961Z,14.01
2018-02-08T12:35:30.461Z,13.51
2018-02-08T12:36:32.956Z,14.94
2018-02-08T12:37:35.441Z,15.45
2018-02-08T12:38:37.950Z,15.23
2018-02-08T12:39:40.480Z,17.56
2018-02-08T12:40:42.960Z,16.58
2018-02-08T12:41:45.454Z,16.30
2018-02-08T12:42:47.933Z,15.83
2018-02-08T12:43:50.412Z,15.58
2018-02-08T12:44:52.921Z,15.56
2018-02-08T12:45:55.390Z,15.22
2018-02-08T12:46:57.875Z,16.24
2018-02-08T12:48:00.361Z,15.05
2018-02-08T12:49:02.852Z,14.31
2018-02-08T12:50:05.346Z,13.46
2018-02-08T12:51:07.831Z,14.31
2018-02-08T12:52:10.335Z,12.49
2018-02-08T12:53:12.824Z,12.57
2018-02-08T12:54:15.299Z,13.44
2018-02-08T12:55:17.810Z,13.66
2018-02-08T12:56:20.298Z,15.58
2018-02-08T12:57:22.778Z,15.94
2018-02-08T12:58:25.323Z,13.94
2018-02-08T12:59:27.799Z,11.27
2018-02-08T13:00:30.296Z,11.00
2018-02-08T13:01:32.791Z,11.30
2018-02-08T13:02:35.272Z,12.74
2018-02-08T13:03:37.755Z,15.69
2018-02-08T13:04:40.269Z,16.45
2018-02-08T13:05:42.864Z,15.82
2018-02-08T13:06:45.353Z,16.95
2018-02-08T13:07:47.840Z,17.45
2018-02-08T13:08:50.315Z,16.09
2018-02-08T13:09:52.788Z,13.03
2018-02-08T13:10:55.281Z,14.62
2018-02-08T13:11:57.779Z,16.36
2018-02-08T13:13:00.269Z,17.45
2018-02-08T13:14:02.734Z,16.63
2018-02-08T13:15:05.203Z,14.23
2018-02-08T13:16:07.716Z,12.43
2018-02-08T13:17:10.195Z,12.08
2018-02-08T13:18:12.732Z,13.83
2018-02-08T13:19:15.207Z,15.24
2018-02-08T13:20:17.750Z,15.27
2018-02-08T13:21:20.238Z,12.89
2018-02-08T13:22:22.721Z,13.89
2018-02-08T13:23:25.190Z,14.01
2018-02-08T13:24:27.668Z,12.85
2018-02-08T13:25:30.152Z,12.42
2018-02-08T13:26:32.680Z,13.15
2018-02-08T13:27:35.168Z,12.46
2018-02-08T13:28:37.673Z,14.43
2018-02-08T13:29:40.153Z,15.20
2018-02-08T13:30:42.622Z,16.23
2018-02-08T13:31:45.631Z,18.04
2018-02-08T13:32:48.098Z,17.17
2018-02-08T13:33:50.562Z,17.76
2018-02-08T13:34:53.057Z,18.13
2018-02-08T13:35:55.550Z,17.93
2018-02-08T13:36:58.065Z,17.01
2018-02-08T13:38:00.567Z,15.41
2018-02-08T13:39:03.035Z,15.52
2018-02-08T15:07:42.364Z,15.15
2018-02-08T15:08:44.849Z,15.33
2018-02-08T15:09:47.329Z,15.57
2018-02-08T15:10:49.820Z,15.14
2018-02-08T15:11:52.334Z,16.08
2018-02-08T15:12:54.807Z,16.24
2018-02-08T15:13:57.284Z,16.62
2018-02-08T15:14:59.774Z,17.72
2018-02-08T15:16:02.253Z,15.80
2018-02-08T15:17:04.748Z,15.38
2018-02-08T15:18:07.219Z,14.41
2018-02-08T15:19:09.707Z,14.61
2018-02-08T15:20:12.174Z,14.05
2018-02-08T15:21:14.644Z,13.63
2018-02-08T15:22:17.149Z,12.83
2018-02-08T15:23:19.645Z,12.89
2018-02-08T15:24:22.152Z,12.77
2018-02-08T15:25:24.631Z,12.44
2018-02-08T15:26:27.155Z,12.74
2018-02-08T15:27:29.659Z,12.38
2018-02-08T15:28:32.128Z,12.97
2018-02-08T15:29:34.617Z,12.28
2018-02-08T15:30:37.086Z,12.32
2018-02-08T15:31:39.568Z,12.48
2018-02-08T15:32:42.084Z,11.70
2018-02-08T15:33:44.574Z,12.03
2018-02-08T15:34:47.065Z,12.18
2018-02-08T15:35:49.553Z,10.85
2018-02-08T15:36:52.041Z,11.32
2018-02-08T15:37:54.556Z,11.16
2018-02-08T15:38:57.096Z,10.84
2018-02-08T15:39:59.552Z,11.09
2018-02-08T15:41:02.030Z,11.63
2018-02-08T15:42:04.507Z,11.75